sensor_id;sensor_type;location;lat;lon;timestamp;P1;durP1;ratioP1;P2;durP2;ratioP2
2868;SDS011;1442;47.448;8.582;2022-07-24T00:00:10;13.98;;;12.23;;
2868;SDS011;1442;47.448;8.582;2022-07-24T00:02:37;14.15;;;11.63;;
2868;SDS011;1442;47.448;8.582;2022-07-24T00:05:06;13.32;;;11.40;;
2868;SDS011;1442;47.448;8.582;2022-07-24T00:07:34;13.32;;;11.00;;
2868;SDS011;1442;47.448;8.582;2022-07-24T00:10:02;12.35;;;9.52;;
2868;SDS011;1442;47.448;8.582;2022-07-24T00:12:29;12.18;;;10.35;;
2868;SDS011;1442;47.448;8.582;2022-07-24T00:14:56;12.43;;;10.25;;
2868;SDS011;1442;47.448;8.582;2022-07-24T00:17:23;14.30;;;11.63;;
2868;SDS011;1442;47.448;8.582;2022-07-24T00:19:50;12.88;;;11.50;;
2868;SDS011;1442;47.448;8.582;2022-07-24T00:22:19;13.13;;;10.82;;
2868;SDS011;1442;47.448;8.582;2022-07-24T00:24:46;13.80;;;11.23;;
2868;SDS011;1442;47.448;8.582;2022-07-24T00:27:13;11.98;;;10.23;;
2868;SDS011;1442;47.448;8.582;2022-07-24T00:29:40;14.88;;;10.93;;
2868;SDS011;1442;47.448;8.582;2022-07-24T00:32:07;13.60;;;10.70;;
2868;SDS011;1442;47.448;8.582;2022-07-24T00:34:34;12.90;;;10.02;;
2868;SDS011;1442;47.448;8.582;2022-07-24T00:37:02;13.30;;;9.70;;
2868;SDS011;1442;47.448;8.582;2022-07-24T00:39:30;13.35;;;10.55;;
2868;SDS011;1442;47.448;8.582;2022-07-24T00:41:57;12.38;;;10.68;;
2868;SDS011;1442;47.448;8.582;2022-07-24T00:44:24;14.48;;;10.73;;
2868;SDS011;1442;47.448;8.582;2022-07-24T00:46:51;16.60;;;10.73;;
2868;SDS011;1442;47.448;8.582;2022-07-24T00:49:19;14.07;;;10.35;;
2868;SDS011;1442;47.448;8.582;2022-07-24T00:51:47;13.30;;;9.48;;
2868;SDS011;1442;47.448;8.582;2022-07-24T00:54:14;12.43;;;10.35;;
2868;SDS011;1442;47.448;8.582;2022-07-24T00:56:44;12.52;;;9.70;;
2868;SDS011;1442;47.448;8.582;2022-07-24T00:59:11;10.73;;;9.57;;
2868;SDS011;1442;47.448;8.582;2022-07-24T01:01:38;13.68;;;10.75;;
2868;SDS011;1442;47.448;8.582;2022-07-24T01:04:06;13.25;;;10.45;;
2868;SDS011;1442;47.448;8.582;2022-07-24T01:06:33;13.07;;;9.90;;
2868;SDS011;1442;47.448;8.582;2022-07-24T01:09:00;14.55;;;9.60;;
2868;SDS011;1442;47.448;8.582;2022-07-24T01:11:28;16.30;;;10.63;;
2868;SDS011;1442;47.448;8.582;2022-07-24T01:13:56;10.57;;;9.52;;
2868;SDS011;1442;47.448;8.582;2022-07-24T01:16:24;12.85;;;10.30;;
2868;SDS011;1442;47.448;8.582;2022-07-24T01:18:51;14.02;;;11.02;;
2868;SDS011;1442;47.448;8.582;2022-07-24T01:21:19;11.25;;;10.05;;
2868;SDS011;1442;47.448;8.582;2022-07-24T01:23:47;14.15;;;10.75;;
2868;SDS011;1442;47.448;8.582;2022-07-24T01:26:14;11.70;;;9.95;;
2868;SDS011;1442;47.448;8.582;2022-07-24T01:28:42;12.80;;;10.85;;
2868;SDS011;1442;47.448;8.582;2022-07-24T01:31:09;12.75;;;9.23;;
2868;SDS011;1442;47.448;8.582;2022-07-24T01:33:36;16.83;;;10.23;;
2868;SDS011;1442;47.448;8.582;2022-07-24T01:36:03;12.18;;;10.43;;
2868;SDS011;1442;47.448;8.582;2022-07-24T01:38:32;12.43;;;9.88;;
2868;SDS011;1442;47.448;8.582;2022-07-24T01:40:59;10.75;;;9.70;;
2868;SDS011;1442;47.448;8.582;2022-07-24T01:43:26;11.75;;;9.82;;
2868;SDS011;1442;47.448;8.582;2022-07-24T01:45:53;11.40;;;10.20;;
2868;SDS011;1442;47.448;8.582;2022-07-24T01:48:20;11.65;;;10.18;;
2868;SDS011;1442;47.448;8.582;2022-07-24T01:50:47;11.73;;;10.48;;
2868;SDS011;1442;47.448;8.582;2022-07-24T01:53:15;13.48;;;10.48;;
2868;SDS011;1442;47.448;8.582;2022-07-24T01:55:43;11.82;;;9.93;;
2868;SDS011;1442;47.448;8.582;2022-07-24T01:58:10;15.30;;;10.65;;
2868;SDS011;1442;47.448;8.582;2022-07-24T02:00:38;12.07;;;10.77;;
2868;SDS011;1442;47.448;8.582;2022-07-24T02:03:05;12.35;;;10.98;;
2868;SDS011;1442;47.448;8.582;2022-07-24T02:05:32;14.30;;;11.07;;
2868;SDS011;1442;47.448;8.582;2022-07-24T02:07:59;15.30;;;11.38;;
2868;SDS011;1442;47.448;8.582;2022-07-24T02:10:27;15.65;;;11.23;;
2868;SDS011;1442;47.448;8.582;2022-07-24T02:12:55;14.18;;;11.02;;
2868;SDS011;1442;47.448;8.582;2022-07-24T02:15:23;12.98;;;10.93;;
2868;SDS011;1442;47.448;8.582;2022-07-24T02:17:51;13.05;;;11.70;;
2868;SDS011;1442;47.448;8.582;2022-07-24T02:20:18;12.93;;;10.82;;
2868;SDS011;1442;47.448;8.582;2022-07-24T02:22:45;11.63;;;10.07;;
2868;SDS011;1442;47.448;8.582;2022-07-24T02:25:13;12.73;;;10.95;;
2868;SDS011;1442;47.448;8.582;2022-07-24T02:27:40;12.48;;;9.85;;
2868;SDS011;1442;47.448;8.582;2022-07-24T02:30:10;13.00;;;10.70;;
2868;SDS011;1442;47.448;8.582;2022-07-24T02:32:37;13.27;;;10.55;;
2868;SDS011;1442;47.448;8.582;2022-07-24T02:35:04;12.23;;;10.20;;
2868;SDS011;1442;47.448;8.582;2022-07-24T02:37:32;13.55;;;11.57;;
2868;SDS011;1442;47.448;8.582;2022-07-24T02:39:59;13.43;;;10.57;;
2868;SDS011;1442;47.448;8.582;2022-07-24T02:42:26;14.23;;;11.93;;
2868;SDS011;1442;47.448;8.582;2022-07-24T02:44:53;15.93;;;11.57;;
2868;SDS011;1442;47.448;8.582;2022-07-24T02:47:21;13.63;;;11.23;;
2868;SDS011;1442;47.448;8.582;2022-07-24T02:49:48;13.57;;;11.32;;
2868;SDS011;1442;47.448;8.582;2022-07-24T02:52:15;12.27;;;11.07;;
2868;SDS011;1442;47.448;8.582;2022-07-24T02:54:42;14.85;;;10.80;;
2868;SDS011;1442;47.448;8.582;2022-07-24T02:57:09;16.52;;;11.00;;
2868;SDS011;1442;47.448;8.582;2022-07-24T02:59:37;12.40;;;10.85;;
2868;SDS011;1442;47.448;8.582;2022-07-24T03:02:04;11.98;;;10.15;;
2868;SDS011;1442;47.448;8.582;2022-07-24T03:04:32;14.90;;;10.45;;
2868;SDS011;1442;47.448;8.582;2022-07-24T03:07:00;14.23;;;11.27;;
2868;SDS011;1442;47.448;8.582;2022-07-24T03:09:27;14.35;;;10.43;;
2868;SDS011;1442;47.448;8.582;2022-07-24T03:11:54;12.75;;;11.07;;
2868;SDS011;1442;47.448;8.582;2022-07-24T03:14:21;14.88;;;10.23;;
2868;SDS011;1442;47.448;8.582;2022-07-24T03:16:48;16.42;;;11.38;;
2868;SDS011;1442;47.448;8.582;2022-07-24T03:19:15;11.80;;;10.13;;
2868;SDS011;1442;47.448;8.582;2022-07-24T03:21:44;12.27;;;10.23;;
2868;SDS011;1442;47.448;8.582;2022-07-24T03:24:11;13.18;;;11.15;;
2868;SDS011;1442;47.448;8.582;2022-07-24T03:26:38;14.93;;;11.40;;
2868;SDS011;1442;47.448;8.582;2022-07-24T03:29:05;15.00;;;10.80;;
2868;SDS011;1442;47.448;8.582;2022-07-24T03:31:32;13.07;;;10.52;;
2868;SDS011;1442;47.448;8.582;2022-07-24T03:33:59;14.38;;;11.57;;
2868;SDS011;1442;47.448;8.582;2022-07-24T03:36:27;12.38;;;10.77;;
2868;SDS011;1442;47.448;8.582;2022-07-24T03:38:55;14.40;;;11.43;;
2868;SDS011;1442;47.448;8.582;2022-07-24T03:41:22;13.85;;;11.32;;
2868;SDS011;1442;47.448;8.582;2022-07-24T03:43:49;13.48;;;11.13;;
2868;SDS011;1442;47.448;8.582;2022-07-24T03:46:16;14.32;;;11.55;;
2868;SDS011;1442;47.448;8.582;2022-07-24T03:48:43;15.50;;;11.95;;
2868;SDS011;1442;47.448;8.582;2022-07-24T03:51:10;12.80;;;11.50;;
2868;SDS011;1442;47.448;8.582;2022-07-24T03:53:38;13.75;;;11.15;;
2868;SDS011;1442;47.448;8.582;2022-07-24T03:56:07;13.02;;;11.68;;
2868;SDS011;1442;47.448;8.582;2022-07-24T03:58:34;20.15;;;11.32;;
2868;SDS011;1442;47.448;8.582;2022-07-24T04:01:01;13.60;;;10.52;;
2868;SDS011;1442;47.448;8.582;2022-07-24T04:03:29;13.52;;;11.05;;
2868;SDS011;1442;47.448;8.582;2022-07-24T04:05:56;15.13;;;11.70;;
2868;SDS011;1442;47.448;8.582;2022-07-24T04:08:23;14.30;;;10.90;;
2868;SDS011;1442;47.448;8.582;2022-07-24T04:10:50;12.80;;;11.43;;
2868;SDS011;1442;47.448;8.582;2022-07-24T04:13:23;12.48;;;10.90;;
2868;SDS011;1442;47.448;8.582;2022-07-24T04:15:50;13.80;;;11.30;;
2868;SDS011;1442;47.448;8.582;2022-07-24T04:18:17;14.27;;;11.40;;
2868;SDS011;1442;47.448;8.582;2022-07-24T04:20:44;12.82;;;11.52;;
2868;SDS011;1442;47.448;8.582;2022-07-24T04:23:12;15.88;;;11.77;;
2868;SDS011;1442;47.448;8.582;2022-07-24T04:25:39;13.70;;;11.75;;
2868;SDS011;1442;47.448;8.582;2022-07-24T04:28:06;13.50;;;11.80;;
2868;SDS011;1442;47.448;8.582;2022-07-24T04:30:34;15.02;;;12.00;;
2868;SDS011;1442;47.448;8.582;2022-07-24T04:33:01;12.85;;;11.55;;
2868;SDS011;1442;47.448;8.582;2022-07-24T04:35:28;14.85;;;11.38;;
2868;SDS011;1442;47.448;8.582;2022-07-24T04:37:56;13.68;;;12.05;;
2868;SDS011;1442;47.448;8.582;2022-07-24T04:40:24;14.52;;;11.73;;
2868;SDS011;1442;47.448;8.582;2022-07-24T04:42:51;14.88;;;10.50;;
2868;SDS011;1442;47.448;8.582;2022-07-24T04:45:19;14.88;;;11.38;;
2868;SDS011;1442;47.448;8.582;2022-07-24T04:47:48;12.32;;;11.02;;
2868;SDS011;1442;47.448;8.582;2022-07-24T04:50:15;12.25;;;11.00;;
2868;SDS011;1442;47.448;8.582;2022-07-24T04:52:42;20.42;;;11.20;;
2868;SDS011;1442;47.448;8.582;2022-07-24T04:55:09;13.73;;;11.88;;
2868;SDS011;1442;47.448;8.582;2022-07-24T04:57:38;15.48;;;12.90;;
2868;SDS011;1442;47.448;8.582;2022-07-24T05:00:06;17.52;;;12.18;;
2868;SDS011;1442;47.448;8.582;2022-07-24T05:02:33;15.52;;;12.52;;
2868;SDS011;1442;47.448;8.582;2022-07-24T05:05:02;15.57;;;12.75;;
2868;SDS011;1442;47.448;8.582;2022-07-24T05:07:29;16.98;;;12.70;;
2868;SDS011;1442;47.448;8.582;2022-07-24T05:09:56;16.98;;;12.80;;
2868;SDS011;1442;47.448;8.582;2022-07-24T05:12:23;15.75;;;13.40;;
2868;SDS011;1442;47.448;8.582;2022-07-24T05:14:51;16.13;;;13.02;;
2868;SDS011;1442;47.448;8.582;2022-07-24T05:17:18;15.73;;;11.80;;
2868;SDS011;1442;47.448;8.582;2022-07-24T05:19:45;14.15;;;12.52;;
2868;SDS011;1442;47.448;8.582;2022-07-24T05:22:13;14.10;;;11.90;;
2868;SDS011;1442;47.448;8.582;2022-07-24T05:24:40;13.57;;;12.27;;
2868;SDS011;1442;47.448;8.582;2022-07-24T05:27:07;18.50;;;12.73;;
2868;SDS011;1442;47.448;8.582;2022-07-24T05:29:34;15.35;;;12.63;;
2868;SDS011;1442;47.448;8.582;2022-07-24T05:32:01;14.77;;;12.00;;
2868;SDS011;1442;47.448;8.582;2022-07-24T05:34:28;14.85;;;11.93;;
2868;SDS011;1442;47.448;8.582;2022-07-24T05:36:56;14.80;;;11.98;;
2868;SDS011;1442;47.448;8.582;2022-07-24T05:39:25;13.50;;;11.88;;
2868;SDS011;1442;47.448;8.582;2022-07-24T05:41:52;14.10;;;11.13;;
2868;SDS011;1442;47.448;8.582;2022-07-24T05:44:19;13.63;;;12.15;;
2868;SDS011;1442;47.448;8.582;2022-07-24T05:46:47;16.73;;;11.73;;
2868;SDS011;1442;47.448;8.582;2022-07-24T05:49:14;13.23;;;11.60;;
2868;SDS011;1442;47.448;8.582;2022-07-24T05:51:41;13.60;;;12.20;;
2868;SDS011;1442;47.448;8.582;2022-07-24T05:54:08;14.20;;;12.80;;
2868;SDS011;1442;47.448;8.582;2022-07-24T05:56:37;15.55;;;12.43;;
2868;SDS011;1442;47.448;8.582;2022-07-24T05:59:04;12.77;;;10.73;;
2868;SDS011;1442;47.448;8.582;2022-07-24T06:01:31;15.05;;;12.48;;
2868;SDS011;1442;47.448;8.582;2022-07-24T06:03:58;14.50;;;12.15;;
2868;SDS011;1442;47.448;8.582;2022-07-24T06:06:25;14.48;;;12.95;;
2868;SDS011;1442;47.448;8.582;2022-07-24T06:08:52;18.35;;;13.05;;
2868;SDS011;1442;47.448;8.582;2022-07-24T06:11:19;15.80;;;13.20;;
2868;SDS011;1442;47.448;8.582;2022-07-24T06:13:49;14.98;;;13.48;;
2868;SDS011;1442;47.448;8.582;2022-07-24T06:16:16;16.23;;;12.75;;
2868;SDS011;1442;47.448;8.582;2022-07-24T06:18:43;16.63;;;13.13;;
2868;SDS011;1442;47.448;8.582;2022-07-24T06:21:10;13.75;;;12.25;;
2868;SDS011;1442;47.448;8.582;2022-07-24T06:23:37;19.40;;;13.77;;
2868;SDS011;1442;47.448;8.582;2022-07-24T06:26:04;17.08;;;13.50;;
2868;SDS011;1442;47.448;8.582;2022-07-24T06:28:31;15.38;;;13.15;;
2868;SDS011;1442;47.448;8.582;2022-07-24T06:31:00;16.70;;;12.27;;
2868;SDS011;1442;47.448;8.582;2022-07-24T06:33:27;13.82;;;11.90;;
2868;SDS011;1442;47.448;8.582;2022-07-24T06:35:54;14.90;;;12.95;;
2868;SDS011;1442;47.448;8.582;2022-07-24T06:38:21;14.23;;;12.48;;
2868;SDS011;1442;47.448;8.582;2022-07-24T06:40:48;20.35;;;13.18;;
2868;SDS011;1442;47.448;8.582;2022-07-24T06:43:15;15.90;;;13.30;;
2868;SDS011;1442;47.448;8.582;2022-07-24T06:45:42;16.45;;;12.85;;
2868;SDS011;1442;47.448;8.582;2022-07-24T06:48:11;13.82;;;12.40;;
2868;SDS011;1442;47.448;8.582;2022-07-24T06:50:38;16.55;;;12.35;;
2868;SDS011;1442;47.448;8.582;2022-07-24T06:53:05;14.15;;;12.38;;
2868;SDS011;1442;47.448;8.582;2022-07-24T06:55:32;16.20;;;13.13;;
2868;SDS011;1442;47.448;8.582;2022-07-24T06:57:59;16.45;;;13.95;;
2868;SDS011;1442;47.448;8.582;2022-07-24T07:00:26;16.95;;;13.05;;
2868;SDS011;1442;47.448;8.582;2022-07-24T07:02:53;15.38;;;12.95;;
2868;SDS011;1442;47.448;8.582;2022-07-24T07:05:22;14.85;;;12.45;;
2868;SDS011;1442;47.448;8.582;2022-07-24T07:07:49;14.98;;;13.48;;
2868;SDS011;1442;47.448;8.582;2022-07-24T07:10:16;14.45;;;12.95;;
2868;SDS011;1442;47.448;8.582;2022-07-24T07:12:43;15.40;;;13.27;;
2868;SDS011;1442;47.448;8.582;2022-07-24T07:15:11;14.45;;;12.85;;
2868;SDS011;1442;47.448;8.582;2022-07-24T07:17:39;12.88;;;11.57;;
2868;SDS011;1442;47.448;8.582;2022-07-24T07:20:06;16.00;;;12.60;;
2868;SDS011;1442;47.448;8.582;2022-07-24T07:22:35;15.05;;;12.43;;
2868;SDS011;1442;47.448;8.582;2022-07-24T07:25:02;15.60;;;14.00;;
2868;SDS011;1442;47.448;8.582;2022-07-24T07:27:29;17.20;;;14.07;;
2868;SDS011;1442;47.448;8.582;2022-07-24T07:29:57;14.32;;;12.82;;
2868;SDS011;1442;47.448;8.582;2022-07-24T07:32:24;17.10;;;13.27;;
2868;SDS011;1442;47.448;8.582;2022-07-24T07:34:51;15.88;;;13.98;;
2868;SDS011;1442;47.448;8.582;2022-07-24T07:37:18;19.05;;;14.52;;
2868;SDS011;1442;47.448;8.582;2022-07-24T07:39:46;16.25;;;13.15;;
2868;SDS011;1442;47.448;8.582;2022-07-24T07:42:13;16.35;;;13.57;;
2868;SDS011;1442;47.448;8.582;2022-07-24T07:44:40;16.50;;;13.93;;
2868;SDS011;1442;47.448;8.582;2022-07-24T07:47:07;16.98;;;13.43;;
2868;SDS011;1442;47.448;8.582;2022-07-24T07:49:35;14.73;;;13.32;;
2868;SDS011;1442;47.448;8.582;2022-07-24T07:52:02;13.70;;;12.35;;
2868;SDS011;1442;47.448;8.582;2022-07-24T07:54:29;14.27;;;12.55;;
2868;SDS011;1442;47.448;8.582;2022-07-24T07:56:57;16.48;;;13.30;;
2868;SDS011;1442;47.448;8.582;2022-07-24T07:59:24;14.77;;;12.88;;
2868;SDS011;1442;47.448;8.582;2022-07-24T08:01:52;17.67;;;12.10;;
2868;SDS011;1442;47.448;8.582;2022-07-24T08:04:19;14.40;;;12.70;;
2868;SDS011;1442;47.448;8.582;2022-07-24T08:06:46;15.90;;;13.85;;
2868;SDS011;1442;47.448;8.582;2022-07-24T08:09:13;18.90;;;13.93;;
2868;SDS011;1442;47.448;8.582;2022-07-24T08:11:40;15.63;;;13.57;;
2868;SDS011;1442;47.448;8.582;2022-07-24T08:14:09;21.27;;;13.70;;
2868;SDS011;1442;47.448;8.582;2022-07-24T08:16:36;15.43;;;13.82;;
2868;SDS011;1442;47.448;8.582;2022-07-24T08:19:03;14.10;;;11.98;;
2868;SDS011;1442;47.448;8.582;2022-07-24T08:21:31;16.63;;;12.77;;
2868;SDS011;1442;47.448;8.582;2022-07-24T08:23:58;13.20;;;11.70;;
2868;SDS011;1442;47.448;8.582;2022-07-24T08:26:26;14.23;;;12.77;;
2868;SDS011;1442;47.448;8.582;2022-07-24T08:28:55;14.02;;;12.60;;
2868;SDS011;1442;47.448;8.582;2022-07-24T08:31:24;13.32;;;11.75;;
2868;SDS011;1442;47.448;8.582;2022-07-24T08:33:51;14.73;;;12.65;;
2868;SDS011;1442;47.448;8.582;2022-07-24T08:36:19;14.30;;;12.18;;
2868;SDS011;1442;47.448;8.582;2022-07-24T08:38:46;14.60;;;12.45;;
2868;SDS011;1442;47.448;8.582;2022-07-24T08:41:13;14.02;;;12.43;;
2868;SDS011;1442;47.448;8.582;2022-07-24T08:43:41;13.38;;;11.95;;
2868;SDS011;1442;47.448;8.582;2022-07-24T08:46:08;14.80;;;12.50;;
2868;SDS011;1442;47.448;8.582;2022-07-24T08:48:38;18.20;;;13.50;;
2868;SDS011;1442;47.448;8.582;2022-07-24T08:51:09;17.75;;;13.05;;
2868;SDS011;1442;47.448;8.582;2022-07-24T08:53:36;14.27;;;12.35;;
2868;SDS011;1442;47.448;8.582;2022-07-24T08:56:03;15.13;;;12.60;;
2868;SDS011;1442;47.448;8.582;2022-07-24T08:58:30;15.07;;;12.80;;
2868;SDS011;1442;47.448;8.582;2022-07-24T09:00:57;14.50;;;12.98;;
2868;SDS011;1442;47.448;8.582;2022-07-24T09:03:25;14.15;;;12.57;;
2868;SDS011;1442;47.448;8.582;2022-07-24T09:05:54;14.90;;;13.40;;
2868;SDS011;1442;47.448;8.582;2022-07-24T09:08:21;17.92;;;13.75;;
2868;SDS011;1442;47.448;8.582;2022-07-24T09:10:58;16.85;;;13.73;;
2868;SDS011;1442;47.448;8.582;2022-07-24T09:13:26;17.10;;;13.70;;
2868;SDS011;1442;47.448;8.582;2022-07-24T09:15:55;15.00;;;13.40;;
2868;SDS011;1442;47.448;8.582;2022-07-24T09:18:28;14.45;;;12.95;;
2868;SDS011;1442;47.448;8.582;2022-07-24T09:20:58;19.15;;;13.10;;
2868;SDS011;1442;47.448;8.582;2022-07-24T09:23:30;14.63;;;12.98;;
2868;SDS011;1442;47.448;8.582;2022-07-24T09:25:57;17.10;;;12.77;;
2868;SDS011;1442;47.448;8.582;2022-07-24T09:28:24;15.52;;;12.43;;
2868;SDS011;1442;47.448;8.582;2022-07-24T09:30:52;13.70;;;11.88;;
2868;SDS011;1442;47.448;8.582;2022-07-24T09:33:19;17.13;;;12.55;;
2868;SDS011;1442;47.448;8.582;2022-07-24T09:35:50;13.95;;;12.18;;
2868;SDS011;1442;47.448;8.582;2022-07-24T09:38:19;14.23;;;11.98;;
2868;SDS011;1442;47.448;8.582;2022-07-24T09:40:50;14.07;;;12.32;;
2868;SDS011;1442;47.448;8.582;2022-07-24T09:43:19;12.73;;;11.43;;
2868;SDS011;1442;47.448;8.582;2022-07-24T09:45:50;11.77;;;10.57;;
2868;SDS011;1442;47.448;8.582;2022-07-24T09:48:18;12.90;;;11.18;;
2868;SDS011;1442;47.448;8.582;2022-07-24T09:50:48;12.63;;;11.30;;
2868;SDS011;1442;47.448;8.582;2022-07-24T09:53:16;15.52;;;11.05;;
2868;SDS011;1442;47.448;8.582;2022-07-24T09:55:55;14.15;;;11.15;;
2868;SDS011;1442;47.448;8.582;2022-07-24T09:58:22;14.60;;;12.02;;
2868;SDS011;1442;47.448;8.582;2022-07-24T10:00:50;13.80;;;11.02;;
2868;SDS011;1442;47.448;8.582;2022-07-24T10:03:18;13.88;;;11.25;;
2868;SDS011;1442;47.448;8.582;2022-07-24T10:05:47;12.27;;;11.05;;
2868;SDS011;1442;47.448;8.582;2022-07-24T10:08:15;12.38;;;10.20;;
2868;SDS011;1442;47.448;8.582;2022-07-24T10:10:42;15.23;;;9.98;;
2868;SDS011;1442;47.448;8.582;2022-07-24T10:13:12;11.57;;;10.30;;
2868;SDS011;1442;47.448;8.582;2022-07-24T10:15:40;13.52;;;11.10;;
2868;SDS011;1442;47.448;8.582;2022-07-24T10:18:15;13.02;;;11.00;;
2868;SDS011;1442;47.448;8.582;2022-07-24T10:20:44;14.80;;;10.85;;
2868;SDS011;1442;47.448;8.582;2022-07-24T10:23:20;11.68;;;10.15;;
2868;SDS011;1442;47.448;8.582;2022-07-24T10:25:51;14.18;;;10.70;;
2868;SDS011;1442;47.448;8.582;2022-07-24T10:28:23;13.43;;;10.90;;
2868;SDS011;1442;47.448;8.582;2022-07-24T10:30:53;10.45;;;9.38;;
2868;SDS011;1442;47.448;8.582;2022-07-24T10:33:20;10.20;;;9.23;;
2868;SDS011;1442;47.448;8.582;2022-07-24T10:35:48;13.63;;;9.73;;
2868;SDS011;1442;47.448;8.582;2022-07-24T10:38:17;9.52;;;8.63;;
2868;SDS011;1442;47.448;8.582;2022-07-24T10:40:48;11.32;;;10.32;;
2868;SDS011;1442;47.448;8.582;2022-07-24T10:43:16;11.60;;;10.40;;
2868;SDS011;1442;47.448;8.582;2022-07-24T10:45:45;13.18;;;9.18;;
2868;SDS011;1442;47.448;8.582;2022-07-24T10:48:25;10.30;;;8.70;;
2868;SDS011;1442;47.448;8.582;2022-07-24T10:50:59;9.30;;;8.38;;
2868;SDS011;1442;47.448;8.582;2022-07-24T10:53:28;10.55;;;8.65;;
2868;SDS011;1442;47.448;8.582;2022-07-24T10:56:00;11.63;;;9.02;;
2868;SDS011;1442;47.448;8.582;2022-07-24T10:58:50;10.23;;;8.35;;
2868;SDS011;1442;47.448;8.582;2022-07-24T11:01:28;9.00;;;8.13;;
2868;SDS011;1442;47.448;8.582;2022-07-24T11:03:56;13.02;;;8.75;;
2868;SDS011;1442;47.448;8.582;2022-07-24T11:06:37;9.93;;;8.70;;
2868;SDS011;1442;47.448;8.582;2022-07-24T11:09:04;9.27;;;7.90;;
2868;SDS011;1442;47.448;8.582;2022-07-24T11:11:31;9.18;;;7.65;;
2868;SDS011;1442;47.448;8.582;2022-07-24T11:13:59;9.52;;;7.68;;
2868;SDS011;1442;47.448;8.582;2022-07-24T11:16:31;9.07;;;8.18;;
2868;SDS011;1442;47.448;8.582;2022-07-24T11:21:26;12.63;;;8.23;;
2868;SDS011;1442;47.448;8.582;2022-07-24T11:26:36;13.68;;;8.00;;
2868;SDS011;1442;47.448;8.582;2022-07-24T11:29:11;9.38;;;7.50;;
2868;SDS011;1442;47.448;8.582;2022-07-24T11:31:40;9.05;;;8.20;;
2868;SDS011;1442;47.448;8.582;2022-07-24T11:34:07;11.77;;;8.30;;
2868;SDS011;1442;47.448;8.582;2022-07-24T11:36:35;9.95;;;8.23;;
2868;SDS011;1442;47.448;8.582;2022-07-24T11:39:02;10.50;;;8.55;;
2868;SDS011;1442;47.448;8.582;2022-07-24T11:41:41;9.13;;;7.70;;
2868;SDS011;1442;47.448;8.582;2022-07-24T11:44:09;9.00;;;7.95;;
2868;SDS011;1442;47.448;8.582;2022-07-24T11:46:38;10.10;;;8.63;;
2868;SDS011;1442;47.448;8.582;2022-07-24T11:49:07;9.05;;;8.18;;
2868;SDS011;1442;47.448;8.582;2022-07-24T11:51:40;8.98;;;8.07;;
2868;SDS011;1442;47.448;8.582;2022-07-24T11:54:07;9.00;;;8.07;;
2868;SDS011;1442;47.448;8.582;2022-07-24T11:56:34;10.13;;;7.93;;
2868;SDS011;1442;47.448;8.582;2022-07-24T11:59:01;9.18;;;8.27;;
2868;SDS011;1442;47.448;8.582;2022-07-24T12:01:28;10.15;;;9.07;;
2868;SDS011;1442;47.448;8.582;2022-07-24T12:03:56;8.80;;;7.68;;
2868;SDS011;1442;47.448;8.582;2022-07-24T12:06:25;9.52;;;8.30;;
2868;SDS011;1442;47.448;8.582;2022-07-24T12:08:55;9.63;;;8.45;;
2868;SDS011;1442;47.448;8.582;2022-07-24T12:11:23;9.57;;;7.72;;
2868;SDS011;1442;47.448;8.582;2022-07-24T12:13:50;10.68;;;8.20;;
2868;SDS011;1442;47.448;8.582;2022-07-24T12:16:22;9.20;;;8.30;;
2868;SDS011;1442;47.448;8.582;2022-07-24T12:18:50;9.05;;;7.95;;
2868;SDS011;1442;47.448;8.582;2022-07-24T12:21:17;8.75;;;7.95;;
2868;SDS011;1442;47.448;8.582;2022-07-24T12:23:45;9.00;;;8.07;;
2868;SDS011;1442;47.448;8.582;2022-07-24T12:26:13;8.93;;;8.02;;
2868;SDS011;1442;47.448;8.582;2022-07-24T12:28:40;8.30;;;7.53;;
2868;SDS011;1442;47.448;8.582;2022-07-24T12:31:07;9.05;;;7.82;;
2868;SDS011;1442;47.448;8.582;2022-07-24T12:33:35;8.63;;;7.72;;
2868;SDS011;1442;47.448;8.582;2022-07-24T12:36:03;8.15;;;7.35;;
2868;SDS011;1442;47.448;8.582;2022-07-24T12:38:34;8.30;;;7.30;;
2868;SDS011;1442;47.448;8.582;2022-07-24T12:41:03;11.48;;;8.10;;
2868;SDS011;1442;47.448;8.582;2022-07-24T12:43:31;10.20;;;8.20;;
2868;SDS011;1442;47.448;8.582;2022-07-24T12:46:05;9.23;;;8.25;;
2868;SDS011;1442;47.448;8.582;2022-07-24T12:48:32;10.65;;;8.13;;
2868;SDS011;1442;47.448;8.582;2022-07-24T12:51:06;9.48;;;8.18;;
2868;SDS011;1442;47.448;8.582;2022-07-24T12:53:35;10.35;;;8.07;;
2868;SDS011;1442;47.448;8.582;2022-07-24T12:56:08;8.82;;;7.93;;
2868;SDS011;1442;47.448;8.582;2022-07-24T12:58:49;8.63;;;7.82;;
2868;SDS011;1442;47.448;8.582;2022-07-24T13:01:16;8.75;;;7.93;;
2868;SDS011;1442;47.448;8.582;2022-07-24T13:03:48;8.82;;;7.35;;
2868;SDS011;1442;47.448;8.582;2022-07-24T13:06:16;8.93;;;8.02;;
2868;SDS011;1442;47.448;8.582;2022-07-24T13:08:43;8.73;;;7.85;;
2868;SDS011;1442;47.448;8.582;2022-07-24T13:11:11;12.40;;;7.75;;
2868;SDS011;1442;47.448;8.582;2022-07-24T13:13:38;8.55;;;7.20;;
2868;SDS011;1442;47.448;8.582;2022-07-24T13:16:06;8.15;;;7.35;;
2868;SDS011;1442;47.448;8.582;2022-07-24T13:18:33;8.40;;;7.50;;
2868;SDS011;1442;47.448;8.582;2022-07-24T13:21:00;10.07;;;7.65;;
2868;SDS011;1442;47.448;8.582;2022-07-24T13:23:27;8.02;;;7.28;;
2868;SDS011;1442;47.448;8.582;2022-07-24T13:25:54;7.15;;;6.45;;
2868;SDS011;1442;47.448;8.582;2022-07-24T13:28:23;7.88;;;7.07;;
2868;SDS011;1442;47.448;8.582;2022-07-24T13:30:51;9.20;;;7.53;;
2868;SDS011;1442;47.448;8.582;2022-07-24T13:33:18;7.78;;;7.07;;
2868;SDS011;1442;47.448;8.582;2022-07-24T13:35:45;7.57;;;6.75;;
2868;SDS011;1442;47.448;8.582;2022-07-24T13:38:12;8.32;;;7.53;;
2868;SDS011;1442;47.448;8.582;2022-07-24T13:40:39;9.95;;;7.43;;
2868;SDS011;1442;47.448;8.582;2022-07-24T13:43:06;8.15;;;7.35;;
2868;SDS011;1442;47.448;8.582;2022-07-24T13:45:34;8.73;;;7.50;;
2868;SDS011;1442;47.448;8.582;2022-07-24T13:48:02;8.05;;;7.35;;
2868;SDS011;1442;47.448;8.582;2022-07-24T13:50:29;8.80;;;7.40;;
2868;SDS011;1442;47.448;8.582;2022-07-24T13:52:56;8.07;;;7.38;;
2868;SDS011;1442;47.448;8.582;2022-07-24T13:55:23;13.10;;;7.50;;
2868;SDS011;1442;47.448;8.582;2022-07-24T13:57:50;8.15;;;7.45;;
2868;SDS011;1442;47.448;8.582;2022-07-24T14:00:17;8.65;;;7.65;;
2868;SDS011;1442;47.448;8.582;2022-07-24T14:02:46;8.40;;;7.15;;
2868;SDS011;1442;47.448;8.582;2022-07-24T14:05:13;8.00;;;7.30;;
2868;SDS011;1442;47.448;8.582;2022-07-24T14:07:40;11.15;;;7.80;;
2868;SDS011;1442;47.448;8.582;2022-07-24T14:10:08;8.15;;;7.35;;
2868;SDS011;1442;47.448;8.582;2022-07-24T14:12:35;8.23;;;7.43;;
2868;SDS011;1442;47.448;8.582;2022-07-24T14:15:02;8.20;;;7.00;;
2868;SDS011;1442;47.448;8.582;2022-07-24T14:17:29;9.38;;;7.53;;
2868;SDS011;1442;47.448;8.582;2022-07-24T14:19:58;9.68;;;7.72;;
2868;SDS011;1442;47.448;8.582;2022-07-24T14:22:25;7.65;;;7.00;;
2868;SDS011;1442;47.448;8.582;2022-07-24T14:24:52;7.18;;;6.25;;
2868;SDS011;1442;47.448;8.582;2022-07-24T14:27:19;7.75;;;6.95;;
2868;SDS011;1442;47.448;8.582;2022-07-24T14:29:46;10.85;;;7.15;;
2868;SDS011;1442;47.448;8.582;2022-07-24T14:32:13;8.43;;;7.63;;
2868;SDS011;1442;47.448;8.582;2022-07-24T14:34:40;7.90;;;7.07;;
2868;SDS011;1442;47.448;8.582;2022-07-24T14:37:09;9.52;;;6.72;;
2868;SDS011;1442;47.448;8.582;2022-07-24T14:39:36;8.27;;;6.72;;
2868;SDS011;1442;47.448;8.582;2022-07-24T14:42:03;9.20;;;7.30;;
2868;SDS011;1442;47.448;8.582;2022-07-24T14:44:31;9.38;;;7.15;;
2868;SDS011;1442;47.448;8.582;2022-07-24T14:46:58;9.82;;;6.93;;
2868;SDS011;1442;47.448;8.582;2022-07-24T14:49:26;9.02;;;7.60;;
2868;SDS011;1442;47.448;8.582;2022-07-24T14:51:53;8.15;;;7.32;;
2868;SDS011;1442;47.448;8.582;2022-07-24T14:54:22;13.35;;;7.32;;
2868;SDS011;1442;47.448;8.582;2022-07-24T14:56:49;8.70;;;7.22;;
2868;SDS011;1442;47.448;8.582;2022-07-24T14:59:16;8.55;;;7.35;;
2868;SDS011;1442;47.448;8.582;2022-07-24T15:01:43;8.68;;;7.20;;
2868;SDS011;1442;47.448;8.582;2022-07-24T15:04:10;8.50;;;7.45;;